sensor_id;sensor_type;location;lat;lon;timestamp;temperature;humidity
4548;DHT22;2286;51.570;7.090;2023-04-12T00:00:42;10.10;99.90
4548;DHT22;2286;51.570;7.090;2023-04-12T00:03:10;10.20;99.90
4548;DHT22;2286;51.570;7.090;2023-04-12T00:05:37;10.10;99.90
4548;DHT22;2286;51.570;7.090;2023-04-12T00:08:04;10.20;99.90
4548;DHT22;2286;51.570;7.090;2023-04-12T00:10:35;10.20;99.90
4548;DHT22;2286;51.570;7.090;2023-04-12T00:13:02;10.20;99.90
4548;DHT22;2286;51.570;7.090;2023-04-12T00:15:29;10.20;99.90
4548;DHT22;2286;51.570;7.090;2023-04-12T00:17:58;10.20;99.90
4548;DHT22;2286;51.570;7.090;2023-04-12T00:20:25;10.20;99.90
4548;DHT22;2286;51.570;7.090;2023-04-12T00:22:52;10.20;99.90
4548;DHT22;2286;51.570;7.090;2023-04-12T00:25:19;10.30;99.90
4548;DHT22;2286;51.570;7.090;2023-04-12T00:27:46;10.30;99.90
4548;DHT22;2286;51.570;7.090;2023-04-12T00:30:13;10.40;99.90
4548;DHT22;2286;51.570;7.090;2023-04-12T00:32:41;10.40;99.90
4548;DHT22;2286;51.570;7.090;2023-04-12T00:35:10;10.40;99.90
4548;DHT22;2286;51.570;7.090;2023-04-12T00:37:37;10.40;99.90
4548;DHT22;2286;51.570;7.090;2023-04-12T00:40:05;10.40;99.90
4548;DHT22;2286;51.570;7.090;2023-04-12T00:42:35;10.40;99.90
4548;DHT22;2286;51.570;7.090;2023-04-12T00:45:02;10.50;99.90
4548;DHT22;2286;51.570;7.090;2023-04-12T00:47:30;10.50;99.90
4548;DHT22;2286;51.570;7.090;2023-04-12T00:49:58;10.50;99.90
4548;DHT22;2286;51.570;7.090;2023-04-12T00:52:26;10.50;99.90
4548;DHT22;2286;51.570;7.090;2023-04-12T00:54:59;10.40;99.90
4548;DHT22;2286;51.570;7.090;2023-04-12T00:57:26;10.40;99.90
4548;DHT22;2286;51.570;7.090;2023-04-12T00:59:53;10.30;99.90
4548;DHT22;2286;51.570;7.090;2023-04-12T01:02:20;10.30;99.90
4548;DHT22;2286;51.570;7.090;2023-04-12T01:04:47;10.30;1.00
4548;DHT22;2286;51.570;7.090;2023-04-12T01:07:28;10.20;1.00
4548;DHT22;2286;51.570;7.090;2023-04-12T01:10:06;10.10;1.00
4548;DHT22;2286;51.570;7.090;2023-04-12T01:12:41;10.00;1.00
4548;DHT22;2286;51.570;7.090;2023-04-12T01:15:13;10.00;1.00
4548;DHT22;2286;51.570;7.090;2023-04-12T01:17:46;10.00;1.00
4548;DHT22;2286;51.570;7.090;2023-04-12T01:20:18;9.90;1.00
4548;DHT22;2286;51.570;7.090;2023-04-12T01:26:02;9.90;1.00
4548;DHT22;2286;51.570;7.090;2023-04-12T01:28:37;9.80;1.00
4548;DHT22;2286;51.570;7.090;2023-04-12T01:31:08;9.80;1.00
4548;DHT22;2286;51.570;7.090;2023-04-12T01:33:38;9.80;1.00
4548;DHT22;2286;51.570;7.090;2023-04-12T01:36:10;9.80;1.00
4548;DHT22;2286;51.570;7.090;2023-04-12T01:38:39;9.80;1.00
4548;DHT22;2286;51.570;7.090;2023-04-12T01:41:07;9.80;1.00
4548;DHT22;2286;51.570;7.090;2023-04-12T01:43:40;9.80;1.00
4548;DHT22;2286;51.570;7.090;2023-04-12T01:46:08;9.80;14.60
4548;DHT22;2286;51.570;7.090;2023-04-12T01:48:36;9.70;39.90
4548;DHT22;2286;51.570;7.090;2023-04-12T01:51:05;9.70;97.80
4548;DHT22;2286;51.570;7.090;2023-04-12T01:53:48;9.70;99.90
4548;DHT22;2286;51.570;7.090;2023-04-12T01:56:17;9.70;99.90
4548;DHT22;2286;51.570;7.090;2023-04-12T01:58:50;9.70;99.90
4548;DHT22;2286;51.570;7.090;2023-04-12T02:01:18;9.70;99.90
4548;DHT22;2286;51.570;7.090;2023-04-12T02:03:45;9.60;99.90
4548;DHT22;2286;51.570;7.090;2023-04-12T02:06:15;9.60;99.90
4548;DHT22;2286;51.570;7.090;2023-04-12T02:08:44;9.60;1.00
4548;DHT22;2286;51.570;7.090;2023-04-12T02:11:11;9.50;1.00
4548;DHT22;2286;51.570;7.090;2023-04-12T02:13:39;9.60;1.00
4548;DHT22;2286;51.570;7.090;2023-04-12T02:16:08;9.60;1.00
4548;DHT22;2286;51.570;7.090;2023-04-12T02:18:38;9.60;1.00
4548;DHT22;2286;51.570;7.090;2023-04-12T02:21:07;9.50;1.00
4548;DHT22;2286;51.570;7.090;2023-04-12T02:23:34;9.50;1.00
4548;DHT22;2286;51.570;7.090;2023-04-12T02:26:01;9.40;1.00
4548;DHT22;2286;51.570;7.090;2023-04-12T02:28:28;9.40;1.00
4548;DHT22;2286;51.570;7.090;2023-04-12T02:30:55;9.40;1.00
4548;DHT22;2286;51.570;7.090;2023-04-12T02:33:24;9.40;25.40
4548;DHT22;2286;51.570;7.090;2023-04-12T02:35:52;9.30;99.90
4548;DHT22;2286;51.570;7.090;2023-04-12T02:38:20;9.30;99.90
4548;DHT22;2286;51.570;7.090;2023-04-12T02:40:48;9.20;99.90
4548;DHT22;2286;51.570;7.090;2023-04-12T02:43:15;9.20;99.90
4548;DHT22;2286;51.570;7.090;2023-04-12T02:45:42;9.20;99.90
4548;DHT22;2286;51.570;7.090;2023-04-12T02:48:09;9.20;99.90
4548;DHT22;2286;51.570;7.090;2023-04-12T02:50:37;9.20;99.90
4548;DHT22;2286;51.570;7.090;2023-04-12T02:53:04;9.20;99.90
4548;DHT22;2286;51.570;7.090;2023-04-12T02:55:31;9.20;99.90
4548;DHT22;2286;51.570;7.090;2023-04-12T02:57:58;9.20;99.90
4548;DHT22;2286;51.570;7.090;2023-04-12T03:00:25;9.20;99.90
4548;DHT22;2286;51.570;7.090;2023-04-12T03:02:52;9.20;99.90
4548;DHT22;2286;51.570;7.090;2023-04-12T03:05:20;9.20;99.90
4548;DHT22;2286;51.570;7.090;2023-04-12T03:07:48;9.10;99.90
4548;DHT22;2286;51.570;7.090;2023-04-12T03:10:15;9.10;99.90
4548;DHT22;2286;51.570;7.090;2023-04-12T03:12:42;9.10;99.90
4548;DHT22;2286;51.570;7.090;2023-04-12T03:15:10;9.00;1.00
4548;DHT22;2286;51.570;7.090;2023-04-12T03:17:37;9.10;1.00
4548;DHT22;2286;51.570;7.090;2023-04-12T03:20:04;9.00;1.00
4548;DHT22;2286;51.570;7.090;2023-04-12T03:22:35;9.00;1.00
4548;DHT22;2286;51.570;7.090;2023-04-12T03:25:04;9.00;1.00
4548;DHT22;2286;51.570;7.090;2023-04-12T03:27:31;9.00;1.00
4548;DHT22;2286;51.570;7.090;2023-04-12T03:29:58;8.90;1.00
4548;DHT22;2286;51.570;7.090;2023-04-12T03:32:25;8.90;1.00
4548;DHT22;2286;51.570;7.090;2023-04-12T03:34:52;9.00;1.00
4548;DHT22;2286;51.570;7.090;2023-04-12T03:37:20;9.00;1.00
4548;DHT22;2286;51.570;7.090;2023-04-12T03:39:47;8.90;1.00
4548;DHT22;2286;51.570;7.090;2023-04-12T03:42:15;8.90;99.90
4548;DHT22;2286;51.570;7.090;2023-04-12T03:44:42;8.90;1.00
4548;DHT22;2286;51.570;7.090;2023-04-12T03:47:09;8.90;99.90
4548;DHT22;2286;51.570;7.090;2023-04-12T03:49:36;8.90;1.00
4548;DHT22;2286;51.570;7.090;2023-04-12T03:52:04;8.90;1.00
4548;DHT22;2286;51.570;7.090;2023-04-12T03:54:32;8.90;1.00
4548;DHT22;2286;51.570;7.090;2023-04-12T03:56:59;8.90;99.90
4548;DHT22;2286;51.570;7.090;2023-04-12T03:59:28;8.90;1.00
4548;DHT22;2286;51.570;7.090;2023-04-12T04:01:55;8.90;99.90
4548;DHT22;2286;51.570;7.090;2023-04-12T04:04:23;8.90;99.90
4548;DHT22;2286;51.570;7.090;2023-04-12T04:06:50;8.90;99.90
4548;DHT22;2286;51.570;7.090;2023-04-12T04:09:17;9.00;99.90
4548;DHT22;2286;51.570;7.090;2023-04-12T04:11:44;9.00;99.90
4548;DHT22;2286;51.570;7.090;2023-04-12T04:14:11;8.90;99.90
4548;DHT22;2286;51.570;7.090;2023-04-12T04:16:40;9.00;99.90
4548;DHT22;2286;51.570;7.090;2023-04-12T04:19:07;9.00;99.90
4548;DHT22;2286;51.570;7.090;2023-04-12T04:21:34;8.90;99.90
4548;DHT22;2286;51.570;7.090;2023-04-12T04:24:01;8.90;99.90
4548;DHT22;2286;51.570;7.090;2023-04-12T04:26:28;8.90;99.90
4548;DHT22;2286;51.570;7.090;2023-04-12T04:28:58;8.90;99.90
4548;DHT22;2286;51.570;7.090;2023-04-12T04:31:28;8.90;99.90
4548;DHT22;2286;51.570;7.090;2023-04-12T04:34:00;9.00;99.90
4548;DHT22;2286;51.570;7.090;2023-04-12T04:36:28;9.00;99.90
4548;DHT22;2286;51.570;7.090;2023-04-12T04:38:55;9.00;99.90
4548;DHT22;2286;51.570;7.090;2023-04-12T04:41:22;9.00;99.90
4548;DHT22;2286;51.570;7.090;2023-04-12T04:43:50;9.00;99.90
4548;DHT22;2286;51.570;7.090;2023-04-12T04:46:18;9.00;99.90
4548;DHT22;2286;51.570;7.090;2023-04-12T04:48:47;9.00;99.90
4548;DHT22;2286;51.570;7.090;2023-04-12T04:51:16;9.00;99.90
4548;DHT22;2286;51.570;7.090;2023-04-12T04:53:42;9.00;99.90
4548;DHT22;2286;51.570;7.090;2023-04-12T04:56:10;9.00;99.90
4548;DHT22;2286;51.570;7.090;2023-04-12T04:58:37;9.00;1.00
4548;DHT22;2286;51.570;7.090;2023-04-12T05:01:04;9.00;1.00
4548;DHT22;2286;51.570;7.090;2023-04-12T05:03:31;8.90;1.00
4548;DHT22;2286;51.570;7.090;2023-04-12T05:05:59;9.00;1.00
4548;DHT22;2286;51.570;7.090;2023-04-12T05:08:28;8.90;1.00
4548;DHT22;2286;51.570;7.090;2023-04-12T05:10:56;8.90;1.00
4548;DHT22;2286;51.570;7.090;2023-04-12T05:13:23;8.90;98.90
4548;DHT22;2286;51.570;7.090;2023-04-12T05:15:50;8.90;99.90
4548;DHT22;2286;51.570;7.090;2023-04-12T05:18:17;8.90;1.00
4548;DHT22;2286;51.570;7.090;2023-04-12T05:20:44;8.80;1.00
4548;DHT22;2286;51.570;7.090;2023-04-12T05:23:13;8.80;99.90
4548;DHT22;2286;51.570;7.090;2023-04-12T05:25:45;8.80;1.00
4548;DHT22;2286;51.570;7.090;2023-04-12T05:28:13;8.80;99.90
4548;DHT22;2286;51.570;7.090;2023-04-12T05:30:42;8.70;1.00
4548;DHT22;2286;51.570;7.090;2023-04-12T05:33:09;8.60;99.90
4548;DHT22;2286;51.570;7.090;2023-04-12T05:35:36;8.60;1.00
4548;DHT22;2286;51.570;7.090;2023-04-12T05:38:04;8.60;99.90
4548;DHT22;2286;51.570;7.090;2023-04-12T05:40:31;8.50;1.00
4548;DHT22;2286;51.570;7.090;2023-04-12T05:42:59;8.40;8.30
4548;DHT22;2286;51.570;7.090;2023-04-12T05:45:26;8.40;99.90
4548;DHT22;2286;51.570;7.090;2023-04-12T05:47:54;8.40;1.00
4548;DHT22;2286;51.570;7.090;2023-04-12T05:50:21;8.40;4.70
4548;DHT22;2286;51.570;7.090;2023-04-12T05:52:49;8.40;1.00
4548;DHT22;2286;51.570;7.090;2023-04-12T05:55:18;8.40;99.90
4548;DHT22;2286;51.570;7.090;2023-04-12T05:57:46;8.40;99.90
4548;DHT22;2286;51.570;7.090;2023-04-12T06:00:15;8.40;1.00
4548;DHT22;2286;51.570;7.090;2023-04-12T06:02:43;8.40;99.90
4548;DHT22;2286;51.570;7.090;2023-04-12T06:05:10;8.40;1.00
4548;DHT22;2286;51.570;7.090;2023-04-12T06:07:38;8.40;1.00
4548;DHT22;2286;51.570;7.090;2023-04-12T06:10:07;8.40;99.90
4548;DHT22;2286;51.570;7.090;2023-04-12T06:12:34;8.50;99.90
4548;DHT22;2286;51.570;7.090;2023-04-12T06:15:01;8.50;99.90
4548;DHT22;2286;51.570;7.090;2023-04-12T06:17:29;8.50;99.90
4548;DHT22;2286;51.570;7.090;2023-04-12T06:19:56;8.50;99.90
4548;DHT22;2286;51.570;7.090;2023-04-12T06:22:23;8.50;99.90
4548;DHT22;2286;51.570;7.090;2023-04-12T06:24:51;8.50;99.90
4548;DHT22;2286;51.570;7.090;2023-04-12T06:27:18;8.50;99.70
4548;DHT22;2286;51.570;7.090;2023-04-12T06:29:47;8.60;99.90
4548;DHT22;2286;51.570;7.090;2023-04-12T06:32:14;8.60;99.90
4548;DHT22;2286;51.570;7.090;2023-04-12T06:34:43;8.60;99.90
4548;DHT22;2286;51.570;7.090;2023-04-12T06:37:11;8.60;99.90
4548;DHT22;2286;51.570;7.090;2023-04-12T06:39:38;8.60;99.90
4548;DHT22;2286;51.570;7.090;2023-04-12T06:42:05;8.60;1.00
4548;DHT22;2286;51.570;7.090;2023-04-12T06:44:32;8.70;1.00
4548;DHT22;2286;51.570;7.090;2023-04-12T06:46:59;8.70;1.00
4548;DHT22;2286;51.570;7.090;2023-04-12T06:49:26;8.70;1.00
4548;DHT22;2286;51.570;7.090;2023-04-12T06:51:55;8.70;1.00
4548;DHT22;2286;51.570;7.090;2023-04-12T06:54:22;8.80;1.00
4548;DHT22;2286;51.570;7.090;2023-04-12T06:56:49;8.90;1.20
4548;DHT22;2286;51.570;7.090;2023-04-12T06:59:16;8.90;23.10
4548;DHT22;2286;51.570;7.090;2023-04-12T07:01:43;8.90;1.00
4548;DHT22;2286;51.570;7.090;2023-04-12T07:04:10;8.90;1.00
4548;DHT22;2286;51.570;7.090;2023-04-12T07:06:37;8.90;1.00
4548;DHT22;2286;51.570;7.090;2023-04-12T07:09:06;9.00;1.00
4548;DHT22;2286;51.570;7.090;2023-04-12T07:11:33;9.00;1.00
4548;DHT22;2286;51.570;7.090;2023-04-12T07:14:00;9.00;1.00
4548;DHT22;2286;51.570;7.090;2023-04-12T07:16:28;9.00;1.00
4548;DHT22;2286;51.570;7.090;2023-04-12T07:18:58;9.00;1.00
4548;DHT22;2286;51.570;7.090;2023-04-12T07:21:25;9.00;29.30
4548;DHT22;2286;51.570;7.090;2023-04-12T07:23:52;9.00;99.80
4548;DHT22;2286;51.570;7.090;2023-04-12T07:26:20;9.10;99.90
4548;DHT22;2286;51.570;7.090;2023-04-12T07:28:47;9.10;99.90
4548;DHT22;2286;51.570;7.090;2023-04-12T07:31:14;9.10;99.90
4548;DHT22;2286;51.570;7.090;2023-04-12T07:33:41;9.20;99.90
4548;DHT22;2286;51.570;7.090;2023-04-12T07:36:09;9.20;99.90
4548;DHT22;2286;51.570;7.090;2023-04-12T07:38:37;9.10;99.90
4548;DHT22;2286;51.570;7.090;2023-04-12T07:41:04;9.30;99.90
4548;DHT22;2286;51.570;7.090;2023-04-12T07:43:32;9.30;99.90
4548;DHT22;2286;51.570;7.090;2023-04-12T07:45:59;9.30;99.90
4548;DHT22;2286;51.570;7.090;2023-04-12T07:48:29;9.40;99.90
4548;DHT22;2286;51.570;7.090;2023-04-12T07:50:56;9.40;99.90
4548;DHT22;2286;51.570;7.090;2023-04-12T07:53:24;9.50;99.90
4548;DHT22;2286;51.570;7.090;2023-04-12T07:55:52;9.60;99.90
4548;DHT22;2286;51.570;7.090;2023-04-12T07:58:20;9.60;99.90
4548;DHT22;2286;51.570;7.090;2023-04-12T08:00:49;9.50;99.90
4548;DHT22;2286;51.570;7.090;2023-04-12T08:03:17;9.50;99.90
4548;DHT22;2286;51.570;7.090;2023-04-12T08:05:45;9.50;99.90
4548;DHT22;2286;51.570;7.090;2023-04-12T08:08:17;9.50;46.30
4548;DHT22;2286;51.570;7.090;2023-04-12T08:10:44;9.40;1.00
4548;DHT22;2286;51.570;7.090;2023-04-12T08:13:11;9.40;81.10
4548;DHT22;2286;51.570;7.090;2023-04-12T08:15:38;9.40;99.90
4548;DHT22;2286;51.570;7.090;2023-04-12T08:18:07;9.40;99.90
4548;DHT22;2286;51.570;7.090;2023-04-12T08:20:34;9.40;99.90
4548;DHT22;2286;51.570;7.090;2023-04-12T08:23:01;9.40;99.90
4548;DHT22;2286;51.570;7.090;2023-04-12T08:25:28;9.40;99.90
4548;DHT22;2286;51.570;7.090;2023-04-12T08:27:55;9.40;99.90
4548;DHT22;2286;51.570;7.090;2023-04-12T08:30:22;9.50;99.90
4548;DHT22;2286;51.570;7.090;2023-04-12T08:32:51;9.60;99.90
4548;DHT22;2286;51.570;7.090;2023-04-12T08:35:20;9.70;99.90
4548;DHT22;2286;51.570;7.090;2023-04-12T08:37:47;9.90;99.90
4548;DHT22;2286;51.570;7.090;2023-04-12T08:40:15;10.00;99.90
4548;DHT22;2286;51.570;7.090;2023-04-12T08:42:42;10.20;99.90
4548;DHT22;2286;51.570;7.090;2023-04-12T08:45:10;10.40;99.90
4548;DHT22;2286;51.570;7.090;2023-04-12T08:47:39;10.40;99.90
4548;DHT22;2286;51.570;7.090;2023-04-12T08:50:07;10.70;99.90
4548;DHT22;2286;51.570;7.090;2023-04-12T08:52:37;10.70;99.90
4548;DHT22;2286;51.570;7.090;2023-04-12T08:55:05;10.70;40.60
4548;DHT22;2286;51.570;7.090;2023-04-12T08:57:34;10.60;1.00
4548;DHT22;2286;51.570;7.090;2023-04-12T09:00:01;10.50;1.00
4548;DHT22;2286;51.570;7.090;2023-04-12T09:02:29;10.40;1.00
4548;DHT22;2286;51.570;7.090;2023-04-12T09:04:56;10.40;1.00
4548;DHT22;2286;51.570;7.090;2023-04-12T09:07:23;10.40;99.90
4548;DHT22;2286;51.570;7.090;2023-04-12T09:09:54;10.50;99.90
4548;DHT22;2286;51.570;7.090;2023-04-12T09:12:21;10.50;99.90
4548;DHT22;2286;51.570;7.090;2023-04-12T09:15:04;10.50;81.60
4548;DHT22;2286;51.570;7.090;2023-04-12T09:17:32;10.50;25.80
4548;DHT22;2286;51.570;7.090;2023-04-12T09:20:01;10.30;1.00
4548;DHT22;2286;51.570;7.090;2023-04-12T09:22:33;10.30;99.90
4548;DHT22;2286;51.570;7.090;2023-04-12T09:25:02;10.30;99.90
4548;DHT22;2286;51.570;7.090;2023-04-12T09:27:29;10.30;99.90
4548;DHT22;2286;51.570;7.090;2023-04-12T09:30:11;10.40;99.90
4548;DHT22;2286;51.570;7.090;2023-04-12T09:32:38;10.50;99.90
4548;DHT22;2286;51.570;7.090;2023-04-12T09:35:07;10.50;99.90
4548;DHT22;2286;51.570;7.090;2023-04-12T09:37:34;10.50;99.90
4548;DHT22;2286;51.570;7.090;2023-04-12T09:40:04;10.70;99.90
4548;DHT22;2286;51.570;7.090;2023-04-12T09:42:33;10.60;99.90
4548;DHT22;2286;51.570;7.090;2023-04-12T09:45:18;10.60;99.90
4548;DHT22;2286;51.570;7.090;2023-04-12T09:47:45;10.60;99.90
4548;DHT22;2286;51.570;7.090;2023-04-12T09:50:19;10.60;99.90
4548;DHT22;2286;51.570;7.090;2023-04-12T09:52:47;10.70;99.90
4548;DHT22;2286;51.570;7.090;2023-04-12T09:55:16;10.80;99.90
4548;DHT22;2286;51.570;7.090;2023-04-12T09:57:44;10.90;99.90
4548;DHT22;2286;51.570;7.090;2023-04-12T10:00:13;10.90;99.90
4548;DHT22;2286;51.570;7.090;2023-04-12T10:02:43;11.10;99.90
4548;DHT22;2286;51.570;7.090;2023-04-12T10:05:11;11.10;99.90
4548;DHT22;2286;51.570;7.090;2023-04-12T10:07:39;11.00;42.60
4548;DHT22;2286;51.570;7.090;2023-04-12T10:10:07;10.80;99.90
4548;DHT22;2286;51.570;7.090;2023-04-12T10:12:38;10.90;99.90
4548;DHT22;2286;51.570;7.090;2023-04-12T10:15:08;10.80;99.90
4548;DHT22;2286;51.570;7.090;2023-04-12T10:17:41;10.70;99.90
4548;DHT22;2286;51.570;7.090;2023-04-12T10:20:28;10.60;99.90
4548;DHT22;2286;51.570;7.090;2023-04-12T10:22:56;10.40;99.90
4548;DHT22;2286;51.570;7.090;2023-04-12T10:25:25;10.40;99.90
4548;DHT22;2286;51.570;7.090;2023-04-12T10:27:56;10.30;99.90
4548;DHT22;2286;51.570;7.090;2023-04-12T10:30:38;10.30;99.90
4548;DHT22;2286;51.570;7.090;2023-04-12T10:33:13;10.30;99.90
4548;DHT22;2286;51.570;7.090;2023-04-12T10:35:55;10.30;99.90
4548;DHT22;2286;51.570;7.090;2023-04-12T10:38:23;10.20;99.90
4548;DHT22;2286;51.570;7.090;2023-04-12T10:41:13;10.20;99.90
4548;DHT22;2286;51.570;7.090;2023-04-12T10:43:43;10.20;99.90
4548;DHT22;2286;51.570;7.090;2023-04-12T10:46:46;10.20;99.90
4548;DHT22;2286;51.570;7.090;2023-04-12T10:49:14;10.30;99.90
4548;DHT22;2286;51.570;7.090;2023-04-12T10:52:12;10.50;99.90
4548;DHT22;2286;51.570;7.090;2023-04-12T10:54:41;10.90;99.90
4548;DHT22;2286;51.570;7.090;2023-04-12T10:57:42;11.50;99.90
4548;DHT22;2286;51.570;7.090;2023-04-12T11:00:10;11.90;99.90
4548;DHT22;2286;51.570;7.090;2023-04-12T11:03:07;12.00;1.00
4548;DHT22;2286;51.570;7.090;2023-04-12T11:05:56;12.20;99.90
4548;DHT22;2286;51.570;7.090;2023-04-12T11:08:26;12.30;1.00
4548;DHT22;2286;51.570;7.090;2023-04-12T11:10:58;12.20;99.90
4548;DHT22;2286;51.570;7.090;2023-04-12T11:13:28;11.70;99.90
4548;DHT22;2286;51.570;7.090;2023-04-12T11:15:55;11.30;99.90
4548;DHT22;2286;51.570;7.090;2023-04-12T11:18:24;11.00;99.90
4548;DHT22;2286;51.570;7.090;2023-04-12T11:20:52;10.50;92.80
4548;DHT22;2286;51.570;7.090;2023-04-12T11:23:19;10.10;99.90
4548;DHT22;2286;51.570;7.090;2023-04-12T11:25:51;10.00;99.90
4548;DHT22;2286;51.570;7.090;2023-04-12T11:28:18;9.90;99.90
4548;DHT22;2286;51.570;7.090;2023-04-12T11:30:51;10.00;1.00
4548;DHT22;2286;51.570;7.090;2023-04-12T11:33:34;10.20;99.90
4548;DHT22;2286;51.570;7.090;2023-04-12T11:36:05;10.40;18.00
4548;DHT22;2286;51.570;7.090;2023-04-12T11:38:34;10.60;1.00
4548;DHT22;2286;51.570;7.090;2023-04-12T11:41:05;10.70;1.00
4548;DHT22;2286;51.570;7.090;2023-04-12T11:43:32;11.00;1.00
4548;DHT22;2286;51.570;7.090;2023-04-12T11:46:00;11.40;99.90
4548;DHT22;2286;51.570;7.090;2023-04-12T11:48:27;11.50;99.90
4548;DHT22;2286;51.570;7.090;2023-04-12T11:50:54;11.60;1.00
4548;DHT22;2286;51.570;7.090;2023-04-12T11:53:26;11.50;1.00
4548;DHT22;2286;51.570;7.090;2023-04-12T11:55:55;11.30;99.90
4548;DHT22;2286;51.570;7.090;2023-04-12T11:58:25;11.40;1.00
4548;DHT22;2286;51.570;7.090;2023-04-12T12:00:53;11.50;1.00
4548;DHT22;2286;51.570;7.090;2023-04-12T12:03:22;11.60;99.90
4548;DHT22;2286;51.570;7.090;2023-04-12T12:05:49;11.50;1.00
4548;DHT22;2286;51.570;7.090;2023-04-12T12:08:17;11.60;99.90
4548;DHT22;2286;51.570;7.090;2023-04-12T12:10:45;11.80;99.90
4548;DHT22;2286;51.570;7.090;2023-04-12T12:13:13;12.40;99.90
4548;DHT22;2286;51.570;7.090;2023-04-12T12:15:44;13.70;1.00
4548;DHT22;2286;51.570;7.090;2023-04-12T12:18:11;14.70;99.90
4548;DHT22;2286;51.570;7.090;2023-04-12T12:20:41;15.50;99.90
4548;DHT22;2286;51.570;7.090;2023-04-12T12:23:08;16.10;99.90
4548;DHT22;2286;51.570;7.090;2023-04-12T12:25:35;16.30;99.90
4548;DHT22;2286;51.570;7.090;2023-04-12T12:28:02;17.00;99.90
4548;DHT22;2286;51.570;7.090;2023-04-12T12:30:30;17.50;99.90
4548;DHT22;2286;51.570;7.090;2023-04-12T12:32:59;18.10;99.90
4548;DHT22;2286;51.570;7.090;2023-04-12T12:35:26;18.40;99.90
4548;DHT22;2286;51.570;7.090;2023-04-12T12:37:55;20.20;99.90
4548;DHT22;2286;51.570;7.090;2023-04-12T12:40:30;20.50;99.90
4548;DHT22;2286;51.570;7.090;2023-04-12T12:42:57;21.40;99.90
4548;DHT22;2286;51.570;7.090;2023-04-12T12:45:26;22.00;99.90
4548;DHT22;2286;51.570;7.090;2023-04-12T12:47:56;21.80;99.90
4548;DHT22;2286;51.570;7.090;2023-04-12T12:50:26;20.60;99.90
4548;DHT22;2286;51.570;7.090;2023-04-12T12:52:54;19.50;99.90
4548;DHT22;2286;51.570;7.090;2023-04-12T12:55:22;18.80;99.90
4548;DHT22;2286;51.570;7.090;2023-04-12T12:57:52;18.20;99.90
4548;DHT22;2286;51.570;7.090;2023-04-12T13:00:22;17.10;99.90
4548;DHT22;2286;51.570;7.090;2023-04-12T13:02:49;16.60;99.90
4548;DHT22;2286;51.570;7.090;2023-04-12T13:05:17;16.10;99.90
4548;DHT22;2286;51.570;7.090;2023-04-12T13:07:46;16.30;99.90
4548;DHT22;2286;51.570;7.090;2023-04-12T13:10:13;16.90;99.90
4548;DHT22;2286;51.570;7.090;2023-04-12T13:12:40;18.00;99.90
4548;DHT22;2286;51.570;7.090;2023-04-12T13:15:08;19.30;99.90
4548;DHT22;2286;51.570;7.090;2023-04-12T13:17:36;20.40;99.90
4548;DHT22;2286;51.570;7.090;2023-04-12T13:20:04;20.10;99.90
4548;DHT22;2286;51.570;7.090;2023-04-12T13:22:31;21.80;99.90
4548;DHT22;2286;51.570;7.090;2023-04-12T13:24:59;22.70;99.90
4548;DHT22;2286;51.570;7.090;2023-04-12T13:27:26;22.20;99.90
4548;DHT22;2286;51.570;7.090;2023-04-12T13:29:53;21.40;99.90
4548;DHT22;2286;51.570;7.090;2023-04-12T13:32:20;21.40;99.90
4548;DHT22;2286;51.570;7.090;2023-04-12T13:34:47;21.10;99.90
4548;DHT22;2286;51.570;7.090;2023-04-12T13:37:14;22.10;99.90
4548;DHT22;2286;51.570;7.090;2023-04-12T13:39:41;24.10;99.90
4548;DHT22;2286;51.570;7.090;2023-04-12T13:42:10;21.90;99.90
4548;DHT22;2286;51.570;7.090;2023-04-12T13:44:37;22.40;99.90
4548;DHT22;2286;51.570;7.090;2023-04-12T13:47:04;23.10;99.90
4548;DHT22;2286;51.570;7.090;2023-04-12T13:49:31;22.70;99.90
4548;DHT22;2286;51.570;7.090;2023-04-12T13:51:58;21.20;99.90
4548;DHT22;2286;51.570;7.090;2023-04-12T13:54:25;19.60;99.90
4548;DHT22;2286;51.570;7.090;2023-04-12T13:56:52;18.20;99.90
4548;DHT22;2286;51.570;7.090;2023-04-12T13:59:20;17.50;99.90
4548;DHT22;2286;51.570;7.090;2023-04-12T14:01:47;16.80;99.90
4548;DHT22;2286;51.570;7.090;2023-04-12T14:04:14;15.90;99.90
4548;DHT22;2286;51.570;7.090;2023-04-12T14:06:41;14.90;99.90
4548;DHT22;2286;51.570;7.090;2023-04-12T14:09:21;13.40;99.90
4548;DHT22;2286;51.570;7.090;2023-04-12T14:11:50;12.50;99.90
4548;DHT22;2286;51.570;7.090;2023-04-12T14:14:21;12.00;1.00
4548;DHT22;2286;51.570;7.090;2023-04-12T14:16:48;11.60;99.90
4548;DHT22;2286;51.570;7.090;2023-04-12T14:19:16;11.60;1.00
4548;DHT22;2286;51.570;7.090;2023-04-12T14:21:43;11.40;1.00
4548;DHT22;2286;51.570;7.090;2023-04-12T14:24:10;11.10;99.90
4548;DHT22;2286;51.570;7.090;2023-04-12T14:26:37;11.00;14.20
4548;DHT22;2286;51.570;7.090;2023-04-12T14:29:04;10.70;45.10
4548;DHT22;2286;51.570;7.090;2023-04-12T14:31:33;10.40;99.90
4548;DHT22;2286;51.570;7.090;2023-04-12T14:34:00;10.30;1.00
4548;DHT22;2286;51.570;7.090;2023-04-12T14:36:27;10.30;99.90
4548;DHT22;2286;51.570;7.090;2023-04-12T14:38:55;10.30;99.90
4548;DHT22;2286;51.570;7.090;2023-04-12T14:41:22;10.30;1.00
4548;DHT22;2286;51.570;7.090;2023-04-12T14:43:49;10.30;1.00
4548;DHT22;2286;51.570;7.090;2023-04-12T14:46:16;10.40;1.00
4548;DHT22;2286;51.570;7.090;2023-04-12T14:48:44;10.30;99.90
4548;DHT22;2286;51.570;7.090;2023-04-12T14:51:11;10.30;1.00
4548;DHT22;2286;51.570;7.090;2023-04-12T14:53:39;10.30;1.00
4548;DHT22;2286;51.570;7.090;2023-04-12T14:56:15;10.30;99.90
4548;DHT22;2286;51.570;7.090;2023-04-12T14:58:43;10.00;1.00
4548;DHT22;2286;51.570;7.090;2023-04-12T15:01:10;9.90;99.90
4548;DHT22;2286;51.570;7.090;2023-04-12T15:03:37;9.90;1.00
4548;DHT22;2286;51.570;7.090;2023-04-12T15:06:08;9.80;99.90
4548;DHT22;2286;51.570;7.090;2023-04-12T15:08:35;9.90;99.90
4548;DHT22;2286;51.570;7.090;2023-04-12T15:11:06;10.00;1.00
4548;DHT22;2286;51.570;7.090;2023-04-12T15:13:35;10.20;1.00
4548;DHT22;2286;51.570;7.090;2023-04-12T15:16:04;10.50;1.00
4548;DHT22;2286;51.570;7.090;2023-04-12T15:18:33;11.20;92.80
4548;DHT22;2286;51.570;7.090;2023-04-12T15:21:03;11.80;99.90
4548;DHT22;2286;51.570;7.090;2023-04-12T15:23:32;11.30;1.00
4548;DHT22;2286;51.570;7.090;2023-04-12T15:25:59;11.00;99.90
4548;DHT22;2286;51.570;7.090;2023-04-12T15:28:26;10.80;1.00
4548;DHT22;2286;51.570;7.090;2023-04-12T15:30:53;10.60;1.00
4548;DHT22;2286;51.570;7.090;2023-04-12T15:33:20;10.60;1.00
4548;DHT22;2286;51.570;7.090;2023-04-12T15:35:48;10.50;1.00
4548;DHT22;2286;51.570;7.090;2023-04-12T15:38:15;10.20;99.90
4548;DHT22;2286;51.570;7.090;2023-04-12T15:40:44;10.20;99.90
4548;DHT22;2286;51.570;7.090;2023-04-12T15:43:11;10.10;1.00
4548;DHT22;2286;51.570;7.090;2023-04-12T15:45:39;9.90;99.90
4548;DHT22;2286;51.570;7.090;2023-04-12T15:48:07;9.70;99.90
4548;DHT22;2286;51.570;7.090;2023-04-12T15:50:34;9.70;99.90
4548;DHT22;2286;51.570;7.090;2023-04-12T15:53:01;9.90;1.00
4548;DHT22;2286;51.570;7.090;2023-04-12T15:55:28;10.60;99.90
4548;DHT22;2286;51.570;7.090;2023-04-12T15:57:56;12.80;1.00
4548;DHT22;2286;51.570;7.090;2023-04-12T16:00:25;14.60;1.00
4548;DHT22;2286;51.570;7.090;2023-04-12T16:02:53;16.00;99.90
4548;DHT22;2286;51.570;7.090;2023-04-12T16:05:22;17.70;99.90
4548;DHT22;2286;51.570;7.090;2023-04-12T16:07:51;18.40;99.90
4548;DHT22;2286;51.570;7.090;2023-04-12T16:10:19;18.50;99.90
4548;DHT22;2286;51.570;7.090;2023-04-12T16:12:47;19.00;99.90
4548;DHT22;2286;51.570;7.090;2023-04-12T16:15:16;19.40;99.90
4548;DHT22;2286;51.570;7.090;2023-04-12T16:17:44;20.40;99.90
4548;DHT22;2286;51.570;7.090;2023-04-12T16:20:12;21.00;99.90
4548;DHT22;2286;51.570;7.090;2023-04-12T16:22:41;19.00;99.90
4548;DHT22;2286;51.570;7.090;2023-04-12T16:25:08;17.20;99.90
4548;DHT22;2286;51.570;7.090;2023-04-12T16:27:36;16.20;99.90